sensor_id;sensor_type;location;lat;lon;timestamp;P1;durP1;ratioP1;P2;durP2;ratioP2
28266;SDS011;15525;45.568;5.448;2023-04-07T00:02:22;16.23;;;10.27;;
28266;SDS011;15525;45.568;5.448;2023-04-07T00:04:48;18.30;;;10.98;;
28266;SDS011;15525;45.568;5.448;2023-04-07T00:07:13;15.13;;;9.60;;
28266;SDS011;15525;45.568;5.448;2023-04-07T00:09:38;17.58;;;10.73;;
28266;SDS011;15525;45.568;5.448;2023-04-07T00:12:04;19.63;;;11.00;;
28266;SDS011;15525;45.568;5.448;2023-04-07T00:14:29;16.73;;;10.75;;
28266;SDS011;15525;45.568;5.448;2023-04-07T00:16:55;15.75;;;9.63;;
28266;SDS011;15525;45.568;5.448;2023-04-07T00:19:20;22.67;;;11.15;;
28266;SDS011;15525;45.568;5.448;2023-04-07T00:21:46;19.73;;;10.65;;
28266;SDS011;15525;45.568;5.448;2023-04-07T00:24:11;16.55;;;10.48;;
28266;SDS011;15525;45.568;5.448;2023-04-07T00:26:37;15.80;;;10.18;;
28266;SDS011;15525;45.568;5.448;2023-04-07T00:29:02;16.42;;;10.30;;
28266;SDS011;15525;45.568;5.448;2023-04-07T00:31:28;14.77;;;9.68;;
28266;SDS011;15525;45.568;5.448;2023-04-07T00:33:53;15.35;;;9.30;;
28266;SDS011;15525;45.568;5.448;2023-04-07T00:36:19;14.48;;;9.80;;
28266;SDS011;15525;45.568;5.448;2023-04-07T00:38:45;14.27;;;8.77;;
28266;SDS011;15525;45.568;5.448;2023-04-07T00:41:10;14.70;;;8.93;;
28266;SDS011;15525;45.568;5.448;2023-04-07T00:43:36;14.65;;;8.95;;
28266;SDS011;15525;45.568;5.448;2023-04-07T00:46:01;14.32;;;9.02;;
28266;SDS011;15525;45.568;5.448;2023-04-07T00:48:27;14.55;;;8.73;;
28266;SDS011;15525;45.568;5.448;2023-04-07T00:50:53;13.32;;;8.07;;
28266;SDS011;15525;45.568;5.448;2023-04-07T00:53:18;15.18;;;9.32;;
28266;SDS011;15525;45.568;5.448;2023-04-07T00:55:44;16.85;;;10.15;;
28266;SDS011;15525;45.568;5.448;2023-04-07T00:58:10;15.98;;;9.65;;
28266;SDS011;15525;45.568;5.448;2023-04-07T01:00:37;15.57;;;9.63;;
28266;SDS011;15525;45.568;5.448;2023-04-07T01:03:45;13.15;;;9.20;;
28266;SDS011;15525;45.568;5.448;2023-04-07T01:06:16;16.80;;;9.43;;
28266;SDS011;15525;45.568;5.448;2023-04-07T01:08:53;13.73;;;9.52;;
28266;SDS011;15525;45.568;5.448;2023-04-07T01:11:36;12.07;;;8.82;;
28266;SDS011;15525;45.568;5.448;2023-04-07T01:14:08;11.48;;;8.07;;
28266;SDS011;15525;45.568;5.448;2023-04-07T01:16:45;14.00;;;8.45;;
28266;SDS011;15525;45.568;5.448;2023-04-07T01:21:51;12.55;;;7.93;;
28266;SDS011;15525;45.568;5.448;2023-04-07T01:27:14;11.70;;;7.63;;
28266;SDS011;15525;45.568;5.448;2023-04-07T01:29:47;10.68;;;7.20;;
28266;SDS011;15525;45.568;5.448;2023-04-07T01:32:14;12.23;;;7.70;;
28266;SDS011;15525;45.568;5.448;2023-04-07T01:34:45;10.55;;;7.60;;
28266;SDS011;15525;45.568;5.448;2023-04-07T01:37:13;12.80;;;8.57;;
28266;SDS011;15525;45.568;5.448;2023-04-07T01:39:39;14.30;;;8.25;;
28266;SDS011;15525;45.568;5.448;2023-04-07T01:42:05;13.10;;;7.97;;
28266;SDS011;15525;45.568;5.448;2023-04-07T01:44:32;13.38;;;8.27;;
28266;SDS011;15525;45.568;5.448;2023-04-07T01:46:58;15.70;;;7.70;;
28266;SDS011;15525;45.568;5.448;2023-04-07T01:49:25;18.40;;;8.52;;
28266;SDS011;15525;45.568;5.448;2023-04-07T01:51:51;12.02;;;8.00;;
28266;SDS011;15525;45.568;5.448;2023-04-07T01:54:18;12.32;;;8.40;;
28266;SDS011;15525;45.568;5.448;2023-04-07T01:56:44;16.05;;;8.57;;
28266;SDS011;15525;45.568;5.448;2023-04-07T01:59:10;11.88;;;8.10;;
28266;SDS011;15525;45.568;5.448;2023-04-07T02:01:36;12.30;;;7.97;;
28266;SDS011;15525;45.568;5.448;2023-04-07T02:06:56;13.20;;;8.07;;
28266;SDS011;15525;45.568;5.448;2023-04-07T02:09:25;13.15;;;7.82;;
28266;SDS011;15525;45.568;5.448;2023-04-07T02:11:54;11.85;;;7.78;;
28266;SDS011;15525;45.568;5.448;2023-04-07T02:14:23;13.07;;;7.75;;
28266;SDS011;15525;45.568;5.448;2023-04-07T02:16:50;11.27;;;7.60;;
28266;SDS011;15525;45.568;5.448;2023-04-07T02:19:17;10.90;;;7.18;;
28266;SDS011;15525;45.568;5.448;2023-04-07T02:21:45;11.55;;;7.32;;
28266;SDS011;15525;45.568;5.448;2023-04-07T02:24:12;12.30;;;7.85;;
28266;SDS011;15525;45.568;5.448;2023-04-07T02:26:38;13.20;;;7.50;;
28266;SDS011;15525;45.568;5.448;2023-04-07T02:29:03;16.80;;;7.93;;
28266;SDS011;15525;45.568;5.448;2023-04-07T02:31:29;13.73;;;7.65;;
28266;SDS011;15525;45.568;5.448;2023-04-07T02:33:54;11.52;;;8.13;;
28266;SDS011;15525;45.568;5.448;2023-04-07T02:36:20;12.00;;;7.30;;
28266;SDS011;15525;45.568;5.448;2023-04-07T02:38:45;11.18;;;7.15;;
28266;SDS011;15525;45.568;5.448;2023-04-07T02:41:11;12.82;;;7.20;;
28266;SDS011;15525;45.568;5.448;2023-04-07T02:43:36;12.38;;;7.45;;
28266;SDS011;15525;45.568;5.448;2023-04-07T02:46:01;12.90;;;7.20;;
28266;SDS011;15525;45.568;5.448;2023-04-07T02:48:27;13.13;;;7.30;;
28266;SDS011;15525;45.568;5.448;2023-04-07T02:50:52;11.52;;;7.30;;
28266;SDS011;15525;45.568;5.448;2023-04-07T02:53:18;10.05;;;6.90;;
28266;SDS011;15525;45.568;5.448;2023-04-07T02:55:43;12.57;;;7.38;;
28266;SDS011;15525;45.568;5.448;2023-04-07T02:58:08;11.02;;;6.97;;
28266;SDS011;15525;45.568;5.448;2023-04-07T03:00:34;9.38;;;6.32;;
28266;SDS011;15525;45.568;5.448;2023-04-07T03:02:59;9.48;;;6.55;;
28266;SDS011;15525;45.568;5.448;2023-04-07T03:05:25;14.02;;;7.70;;
28266;SDS011;15525;45.568;5.448;2023-04-07T03:07:51;11.18;;;7.30;;
28266;SDS011;15525;45.568;5.448;2023-04-07T03:10:16;12.18;;;7.45;;
28266;SDS011;15525;45.568;5.448;2023-04-07T03:12:42;11.48;;;7.35;;
28266;SDS011;15525;45.568;5.448;2023-04-07T03:15:07;9.68;;;6.75;;
28266;SDS011;15525;45.568;5.448;2023-04-07T03:17:33;10.43;;;6.85;;
28266;SDS011;15525;45.568;5.448;2023-04-07T03:19:59;10.93;;;7.18;;
28266;SDS011;15525;45.568;5.448;2023-04-07T03:22:24;12.52;;;7.10;;
28266;SDS011;15525;45.568;5.448;2023-04-07T03:24:50;10.95;;;6.88;;
28266;SDS011;15525;45.568;5.448;2023-04-07T03:27:15;12.80;;;7.47;;
28266;SDS011;15525;45.568;5.448;2023-04-07T03:29:41;11.82;;;6.93;;
28266;SDS011;15525;45.568;5.448;2023-04-07T03:32:07;11.18;;;7.70;;
28266;SDS011;15525;45.568;5.448;2023-04-07T03:34:33;12.70;;;7.88;;
28266;SDS011;15525;45.568;5.448;2023-04-07T03:36:58;10.98;;;7.07;;
28266;SDS011;15525;45.568;5.448;2023-04-07T03:39:23;10.85;;;6.60;;
28266;SDS011;15525;45.568;5.448;2023-04-07T03:41:49;10.98;;;7.13;;
28266;SDS011;15525;45.568;5.448;2023-04-07T03:44:15;12.40;;;7.53;;
28266;SDS011;15525;45.568;5.448;2023-04-07T03:46:41;9.50;;;6.88;;
28266;SDS011;15525;45.568;5.448;2023-04-07T03:49:06;13.60;;;7.60;;
28266;SDS011;15525;45.568;5.448;2023-04-07T03:51:32;11.00;;;6.53;;
28266;SDS011;15525;45.568;5.448;2023-04-07T03:53:58;11.90;;;7.10;;
28266;SDS011;15525;45.568;5.448;2023-04-07T03:56:23;11.05;;;7.10;;
28266;SDS011;15525;45.568;5.448;2023-04-07T03:58:49;9.93;;;6.70;;
28266;SDS011;15525;45.568;5.448;2023-04-07T04:01:14;10.73;;;6.97;;
28266;SDS011;15525;45.568;5.448;2023-04-07T04:03:40;10.98;;;7.07;;
28266;SDS011;15525;45.568;5.448;2023-04-07T04:06:06;13.70;;;6.80;;
28266;SDS011;15525;45.568;5.448;2023-04-07T04:08:31;11.25;;;6.88;;
28266;SDS011;15525;45.568;5.448;2023-04-07T04:10:57;11.50;;;7.53;;
28266;SDS011;15525;45.568;5.448;2023-04-07T04:13:22;11.23;;;7.50;;
28266;SDS011;15525;45.568;5.448;2023-04-07T04:15:48;13.40;;;7.22;;
28266;SDS011;15525;45.568;5.448;2023-04-07T04:18:13;11.95;;;7.55;;
28266;SDS011;15525;45.568;5.448;2023-04-07T04:20:39;10.38;;;7.00;;
28266;SDS011;15525;45.568;5.448;2023-04-07T04:23:04;11.85;;;7.15;;
28266;SDS011;15525;45.568;5.448;2023-04-07T04:25:29;9.32;;;6.75;;
28266;SDS011;15525;45.568;5.448;2023-04-07T04:27:55;10.55;;;7.47;;
28266;SDS011;15525;45.568;5.448;2023-04-07T04:30:20;11.35;;;6.68;;
28266;SDS011;15525;45.568;5.448;2023-04-07T04:32:46;11.45;;;7.03;;
28266;SDS011;15525;45.568;5.448;2023-04-07T04:35:11;10.38;;;7.07;;
28266;SDS011;15525;45.568;5.448;2023-04-07T04:37:37;11.75;;;6.95;;
28266;SDS011;15525;45.568;5.448;2023-04-07T04:40:03;11.63;;;7.32;;
28266;SDS011;15525;45.568;5.448;2023-04-07T04:42:32;13.00;;;7.78;;
28266;SDS011;15525;45.568;5.448;2023-04-07T04:44:57;12.13;;;7.50;;
28266;SDS011;15525;45.568;5.448;2023-04-07T04:47:23;10.18;;;7.28;;
28266;SDS011;15525;45.568;5.448;2023-04-07T04:49:48;10.77;;;6.70;;
28266;SDS011;15525;45.568;5.448;2023-04-07T04:52:14;11.57;;;7.05;;
28266;SDS011;15525;45.568;5.448;2023-04-07T04:54:39;12.73;;;8.10;;
28266;SDS011;15525;45.568;5.448;2023-04-07T04:57:04;17.10;;;9.38;;
28266;SDS011;15525;45.568;5.448;2023-04-07T04:59:30;14.38;;;8.57;;
28266;SDS011;15525;45.568;5.448;2023-04-07T05:01:55;16.80;;;7.90;;
28266;SDS011;15525;45.568;5.448;2023-04-07T05:04:21;13.35;;;7.25;;
28266;SDS011;15525;45.568;5.448;2023-04-07T05:06:46;11.23;;;7.07;;
28266;SDS011;15525;45.568;5.448;2023-04-07T05:09:11;12.50;;;7.25;;
28266;SDS011;15525;45.568;5.448;2023-04-07T05:11:37;11.65;;;7.00;;
28266;SDS011;15525;45.568;5.448;2023-04-07T05:14:04;13.88;;;7.47;;
28266;SDS011;15525;45.568;5.448;2023-04-07T05:16:30;13.55;;;7.25;;
28266;SDS011;15525;45.568;5.448;2023-04-07T05:18:55;11.80;;;7.05;;
28266;SDS011;15525;45.568;5.448;2023-04-07T05:21:20;12.05;;;6.88;;
28266;SDS011;15525;45.568;5.448;2023-04-07T05:23:46;12.40;;;7.15;;
28266;SDS011;15525;45.568;5.448;2023-04-07T05:26:11;10.60;;;6.85;;
28266;SDS011;15525;45.568;5.448;2023-04-07T05:28:37;13.45;;;6.90;;
28266;SDS011;15525;45.568;5.448;2023-04-07T05:31:02;11.82;;;7.20;;
28266;SDS011;15525;45.568;5.448;2023-04-07T05:33:28;11.65;;;6.75;;
28266;SDS011;15525;45.568;5.448;2023-04-07T05:35:53;11.73;;;7.03;;
28266;SDS011;15525;45.568;5.448;2023-04-07T05:38:18;12.73;;;7.15;;
28266;SDS011;15525;45.568;5.448;2023-04-07T05:40:44;14.65;;;7.20;;
28266;SDS011;15525;45.568;5.448;2023-04-07T05:43:11;10.00;;;6.50;;
28266;SDS011;15525;45.568;5.448;2023-04-07T05:45:36;11.60;;;7.00;;
28266;SDS011;15525;45.568;5.448;2023-04-07T05:48:02;12.05;;;7.60;;
28266;SDS011;15525;45.568;5.448;2023-04-07T05:50:27;13.75;;;7.50;;
28266;SDS011;15525;45.568;5.448;2023-04-07T05:52:53;15.45;;;8.77;;
28266;SDS011;15525;45.568;5.448;2023-04-07T05:55:18;12.52;;;8.55;;
28266;SDS011;15525;45.568;5.448;2023-04-07T05:57:44;12.52;;;8.55;;
28266;SDS011;15525;45.568;5.448;2023-04-07T06:00:09;18.83;;;9.25;;
28266;SDS011;15525;45.568;5.448;2023-04-07T06:02:35;17.48;;;8.80;;
28266;SDS011;15525;45.568;5.448;2023-04-07T06:05:01;16.95;;;7.80;;
28266;SDS011;15525;45.568;5.448;2023-04-07T06:07:26;19.08;;;8.30;;
28266;SDS011;15525;45.568;5.448;2023-04-07T06:09:51;14.88;;;8.35;;
28266;SDS011;15525;45.568;5.448;2023-04-07T06:12:17;19.77;;;9.00;;
28266;SDS011;15525;45.568;5.448;2023-04-07T06:14:45;18.23;;;8.57;;
28266;SDS011;15525;45.568;5.448;2023-04-07T06:17:15;16.67;;;8.55;;
28266;SDS011;15525;45.568;5.448;2023-04-07T06:19:40;15.85;;;8.80;;
28266;SDS011;15525;45.568;5.448;2023-04-07T06:22:06;15.48;;;8.60;;
28266;SDS011;15525;45.568;5.448;2023-04-07T06:24:32;19.38;;;8.68;;
28266;SDS011;15525;45.568;5.448;2023-04-07T06:26:57;14.52;;;9.02;;
28266;SDS011;15525;45.568;5.448;2023-04-07T06:29:25;15.48;;;9.15;;
28266;SDS011;15525;45.568;5.448;2023-04-07T06:31:51;17.02;;;9.43;;
28266;SDS011;15525;45.568;5.448;2023-04-07T06:34:16;20.65;;;10.13;;
28266;SDS011;15525;45.568;5.448;2023-04-07T06:36:42;16.88;;;9.05;;
28266;SDS011;15525;45.568;5.448;2023-04-07T06:39:07;15.63;;;9.73;;
28266;SDS011;15525;45.568;5.448;2023-04-07T06:41:33;21.42;;;10.30;;
28266;SDS011;15525;45.568;5.448;2023-04-07T06:43:58;18.38;;;10.25;;
28266;SDS011;15525;45.568;5.448;2023-04-07T06:46:23;18.35;;;9.80;;
28266;SDS011;15525;45.568;5.448;2023-04-07T06:48:51;21.38;;;11.02;;
28266;SDS011;15525;45.568;5.448;2023-04-07T06:51:16;20.67;;;11.55;;
28266;SDS011;15525;45.568;5.448;2023-04-07T06:53:41;22.75;;;11.15;;
28266;SDS011;15525;45.568;5.448;2023-04-07T06:56:10;17.90;;;10.60;;
28266;SDS011;15525;45.568;5.448;2023-04-07T06:58:36;20.20;;;11.00;;
28266;SDS011;15525;45.568;5.448;2023-04-07T07:01:03;25.98;;;11.05;;
28266;SDS011;15525;45.568;5.448;2023-04-07T07:03:29;18.48;;;10.70;;
28266;SDS011;15525;45.568;5.448;2023-04-07T07:05:56;21.52;;;10.65;;
28266;SDS011;15525;45.568;5.448;2023-04-07T07:08:25;18.33;;;10.57;;
28266;SDS011;15525;45.568;5.448;2023-04-07T07:10:51;23.02;;;12.95;;
28266;SDS011;15525;45.568;5.448;2023-04-07T07:13:18;20.08;;;12.10;;
28266;SDS011;15525;45.568;5.448;2023-04-07T07:15:44;20.55;;;12.20;;
28266;SDS011;15525;45.568;5.448;2023-04-07T07:18:10;20.02;;;13.73;;
28266;SDS011;15525;45.568;5.448;2023-04-07T07:20:36;20.98;;;12.68;;
28266;SDS011;15525;45.568;5.448;2023-04-07T07:23:02;19.08;;;11.70;;
28266;SDS011;15525;45.568;5.448;2023-04-07T07:25:28;21.55;;;11.68;;
28266;SDS011;15525;45.568;5.448;2023-04-07T07:27:54;14.73;;;9.60;;
28266;SDS011;15525;45.568;5.448;2023-04-07T07:30:20;18.77;;;10.82;;
28266;SDS011;15525;45.568;5.448;2023-04-07T07:32:46;21.52;;;11.07;;
28266;SDS011;15525;45.568;5.448;2023-04-07T07:35:12;17.67;;;11.13;;
28266;SDS011;15525;45.568;5.448;2023-04-07T07:37:37;19.40;;;10.82;;
28266;SDS011;15525;45.568;5.448;2023-04-07T07:40:03;18.38;;;10.77;;
28266;SDS011;15525;45.568;5.448;2023-04-07T07:42:29;22.30;;;12.02;;
28266;SDS011;15525;45.568;5.448;2023-04-07T07:44:55;18.23;;;11.90;;
28266;SDS011;15525;45.568;5.448;2023-04-07T07:47:21;20.15;;;11.98;;
28266;SDS011;15525;45.568;5.448;2023-04-07T07:49:47;18.83;;;11.27;;
28266;SDS011;15525;45.568;5.448;2023-04-07T07:52:12;18.23;;;10.45;;
28266;SDS011;15525;45.568;5.448;2023-04-07T07:54:38;20.05;;;11.50;;
28266;SDS011;15525;45.568;5.448;2023-04-07T07:57:03;18.65;;;10.93;;
28266;SDS011;15525;45.568;5.448;2023-04-07T07:59:30;18.67;;;10.25;;
28266;SDS011;15525;45.568;5.448;2023-04-07T08:01:56;18.85;;;10.77;;
28266;SDS011;15525;45.568;5.448;2023-04-07T08:04:22;22.77;;;11.98;;
28266;SDS011;15525;45.568;5.448;2023-04-07T08:06:48;23.15;;;11.07;;
28266;SDS011;15525;45.568;5.448;2023-04-07T08:09:14;19.08;;;11.15;;
28266;SDS011;15525;45.568;5.448;2023-04-07T08:11:39;16.02;;;10.55;;
28266;SDS011;15525;45.568;5.448;2023-04-07T08:14:05;16.67;;;9.77;;
28266;SDS011;15525;45.568;5.448;2023-04-07T08:16:31;15.25;;;9.75;;
28266;SDS011;15525;45.568;5.448;2023-04-07T08:18:56;17.65;;;10.75;;
28266;SDS011;15525;45.568;5.448;2023-04-07T08:21:22;15.93;;;9.73;;
28266;SDS011;15525;45.568;5.448;2023-04-07T08:23:47;15.52;;;9.60;;
28266;SDS011;15525;45.568;5.448;2023-04-07T08:26:13;15.50;;;10.65;;
28266;SDS011;15525;45.568;5.448;2023-04-07T08:28:38;14.82;;;9.77;;
28266;SDS011;15525;45.568;5.448;2023-04-07T08:31:04;18.08;;;10.00;;
28266;SDS011;15525;45.568;5.448;2023-04-07T08:33:29;15.95;;;9.88;;
28266;SDS011;15525;45.568;5.448;2023-04-07T08:35:55;14.18;;;10.10;;
28266;SDS011;15525;45.568;5.448;2023-04-07T08:38:20;17.50;;;9.68;;
28266;SDS011;15525;45.568;5.448;2023-04-07T08:40:47;14.93;;;10.10;;
28266;SDS011;15525;45.568;5.448;2023-04-07T08:43:18;16.13;;;10.57;;
28266;SDS011;15525;45.568;5.448;2023-04-07T08:45:44;14.57;;;9.48;;
28266;SDS011;15525;45.568;5.448;2023-04-07T08:48:15;14.85;;;9.13;;
28266;SDS011;15525;45.568;5.448;2023-04-07T08:50:44;14.73;;;9.25;;
28266;SDS011;15525;45.568;5.448;2023-04-07T08:53:11;13.98;;;8.23;;
28266;SDS011;15525;45.568;5.448;2023-04-07T08:55:40;14.10;;;9.07;;
28266;SDS011;15525;45.568;5.448;2023-04-07T08:58:08;13.40;;;9.35;;
28266;SDS011;15525;45.568;5.448;2023-04-07T09:00:37;14.85;;;8.65;;
28266;SDS011;15525;45.568;5.448;2023-04-07T09:03:05;17.52;;;8.38;;
28266;SDS011;15525;45.568;5.448;2023-04-07T09:05:32;14.38;;;9.60;;
28266;SDS011;15525;45.568;5.448;2023-04-07T09:07:58;17.38;;;10.45;;
28266;SDS011;15525;45.568;5.448;2023-04-07T09:10:24;15.77;;;10.18;;
28266;SDS011;15525;45.568;5.448;2023-04-07T09:12:49;15.45;;;9.77;;
28266;SDS011;15525;45.568;5.448;2023-04-07T09:15:14;15.52;;;9.60;;
28266;SDS011;15525;45.568;5.448;2023-04-07T09:17:40;14.38;;;9.57;;
28266;SDS011;15525;45.568;5.448;2023-04-07T09:20:06;13.85;;;9.48;;
28266;SDS011;15525;45.568;5.448;2023-04-07T09:22:35;15.93;;;10.13;;
28266;SDS011;15525;45.568;5.448;2023-04-07T09:28:00;13.57;;;8.70;;
28266;SDS011;15525;45.568;5.448;2023-04-07T09:30:29;13.43;;;9.32;;
28266;SDS011;15525;45.568;5.448;2023-04-07T09:32:57;14.02;;;9.00;;
28266;SDS011;15525;45.568;5.448;2023-04-07T09:35:24;14.60;;;8.93;;
28266;SDS011;15525;45.568;5.448;2023-04-07T09:40:26;13.95;;;8.38;;
28266;SDS011;15525;45.568;5.448;2023-04-07T09:42:52;11.73;;;7.95;;
28266;SDS011;15525;45.568;5.448;2023-04-07T09:45:27;8.43;;;5.53;;
28266;SDS011;15525;45.568;5.448;2023-04-07T09:47:54;7.78;;;5.45;;
28266;SDS011;15525;45.568;5.448;2023-04-07T09:52:59;8.88;;;5.40;;
28266;SDS011;15525;45.568;5.448;2023-04-07T09:55:25;7.78;;;4.95;;
28266;SDS011;15525;45.568;5.448;2023-04-07T09:57:53;9.50;;;5.40;;
28266;SDS011;15525;45.568;5.448;2023-04-07T10:00:19;10.02;;;5.60;;
28266;SDS011;15525;45.568;5.448;2023-04-07T10:02:45;9.52;;;5.07;;
28266;SDS011;15525;45.568;5.448;2023-04-07T10:05:11;6.78;;;4.70;;
28266;SDS011;15525;45.568;5.448;2023-04-07T10:07:37;7.55;;;5.40;;
28266;SDS011;15525;45.568;5.448;2023-04-07T10:10:03;11.98;;;6.05;;
28266;SDS011;15525;45.568;5.448;2023-04-07T10:12:32;9.50;;;5.22;;
28266;SDS011;15525;45.568;5.448;2023-04-07T10:14:59;7.68;;;4.88;;
28266;SDS011;15525;45.568;5.448;2023-04-07T10:17:26;8.70;;;5.15;;
28266;SDS011;15525;45.568;5.448;2023-04-07T10:19:52;7.05;;;4.18;;
28266;SDS011;15525;45.568;5.448;2023-04-07T10:22:19;6.90;;;3.90;;
28266;SDS011;15525;45.568;5.448;2023-04-07T10:27:21;6.18;;;4.07;;
28266;SDS011;15525;45.568;5.448;2023-04-07T10:29:56;7.35;;;4.20;;
28266;SDS011;15525;45.568;5.448;2023-04-07T10:32:23;7.47;;;3.05;;
28266;SDS011;15525;45.568;5.448;2023-04-07T10:37:21;4.87;;;2.70;;
28266;SDS011;15525;45.568;5.448;2023-04-07T10:39:48;5.38;;;3.10;;
28266;SDS011;15525;45.568;5.448;2023-04-07T10:45:03;5.22;;;3.03;;
28266;SDS011;15525;45.568;5.448;2023-04-07T10:47:32;3.85;;;3.10;;
28266;SDS011;15525;45.568;5.448;2023-04-07T10:52:47;5.18;;;3.38;;
28266;SDS011;15525;45.568;5.448;2023-04-07T10:55:35;8.30;;;3.35;;
28266;SDS011;15525;45.568;5.448;2023-04-07T11:03:32;4.13;;;2.53;;
28266;SDS011;15525;45.568;5.448;2023-04-07T11:06:17;4.22;;;3.03;;
28266;SDS011;15525;45.568;5.448;2023-04-07T11:11:12;3.63;;;2.42;;
28266;SDS011;15525;45.568;5.448;2023-04-07T11:13:45;5.05;;;2.55;;
28266;SDS011;15525;45.568;5.448;2023-04-07T11:16:15;5.43;;;2.50;;
28266;SDS011;15525;45.568;5.448;2023-04-07T11:18:42;3.33;;;2.50;;
28266;SDS011;15525;45.568;5.448;2023-04-07T11:21:09;5.72;;;3.00;;
28266;SDS011;15525;45.568;5.448;2023-04-07T11:23:38;3.78;;;2.50;;
28266;SDS011;15525;45.568;5.448;2023-04-07T11:26:05;4.65;;;2.20;;
28266;SDS011;15525;45.568;5.448;2023-04-07T11:28:30;2.72;;;1.70;;
28266;SDS011;15525;45.568;5.448;2023-04-07T11:30:56;4.05;;;1.92;;
28266;SDS011;15525;45.568;5.448;2023-04-07T11:33:27;4.75;;;1.80;;
28266;SDS011;15525;45.568;5.448;2023-04-07T11:35:55;4.10;;;1.70;;
28266;SDS011;15525;45.568;5.448;2023-04-07T11:38:23;3.40;;;1.50;;
28266;SDS011;15525;45.568;5.448;2023-04-07T11:40:51;4.63;;;2.20;;
28266;SDS011;15525;45.568;5.448;2023-04-07T11:43:18;5.95;;;2.30;;
28266;SDS011;15525;45.568;5.448;2023-04-07T11:45:46;4.95;;;2.97;;
28266;SDS011;15525;45.568;5.448;2023-04-07T11:48:31;6.70;;;3.80;;
28266;SDS011;15525;45.568;5.448;2023-04-07T11:50:58;6.25;;;4.65;;
28266;SDS011;15525;45.568;5.448;2023-04-07T11:53:28;9.57;;;5.00;;
28266;SDS011;15525;45.568;5.448;2023-04-07T11:56:14;6.15;;;4.90;;
28266;SDS011;15525;45.568;5.448;2023-04-07T12:01:14;5.97;;;4.43;;
28266;SDS011;15525;45.568;5.448;2023-04-07T12:03:53;8.38;;;4.68;;
28266;SDS011;15525;45.568;5.448;2023-04-07T12:06:32;7.40;;;4.57;;
28266;SDS011;15525;45.568;5.448;2023-04-07T12:09:03;8.10;;;4.80;;
28266;SDS011;15525;45.568;5.448;2023-04-07T12:11:29;6.70;;;4.57;;
28266;SDS011;15525;45.568;5.448;2023-04-07T12:13:55;6.68;;;4.45;;
28266;SDS011;15525;45.568;5.448;2023-04-07T12:16:21;4.45;;;3.58;;
28266;SDS011;15525;45.568;5.448;2023-04-07T12:18:47;4.15;;;3.05;;
28266;SDS011;15525;45.568;5.448;2023-04-07T12:21:13;4.50;;;2.78;;
28266;SDS011;15525;45.568;5.448;2023-04-07T12:23:39;3.88;;;2.78;;
28266;SDS011;15525;45.568;5.448;2023-04-07T12:26:05;5.15;;;3.10;;
28266;SDS011;15525;45.568;5.448;2023-04-07T12:28:31;4.53;;;2.95;;
28266;SDS011;15525;45.568;5.448;2023-04-07T12:30:57;5.35;;;3.53;;
28266;SDS011;15525;45.568;5.448;2023-04-07T12:33:22;4.78;;;3.40;;
28266;SDS011;15525;45.568;5.448;2023-04-07T12:35:48;4.88;;;2.90;;
28266;SDS011;15525;45.568;5.448;2023-04-07T12:38:14;7.38;;;2.90;;
28266;SDS011;15525;45.568;5.448;2023-04-07T12:40:40;4.22;;;2.60;;
28266;SDS011;15525;45.568;5.448;2023-04-07T12:43:06;3.63;;;2.50;;
28266;SDS011;15525;45.568;5.448;2023-04-07T12:45:31;3.40;;;2.40;;
28266;SDS011;15525;45.568;5.448;2023-04-07T12:47:57;5.22;;;2.60;;
28266;SDS011;15525;45.568;5.448;2023-04-07T12:50:23;4.97;;;2.42;;
28266;SDS011;15525;45.568;5.448;2023-04-07T12:52:51;3.67;;;2.00;;
28266;SDS011;15525;45.568;5.448;2023-04-07T12:55:18;4.25;;;2.20;;
28266;SDS011;15525;45.568;5.448;2023-04-07T12:57:44;2.15;;;1.40;;
28266;SDS011;15525;45.568;5.448;2023-04-07T13:00:09;2.70;;;1.40;;
28266;SDS011;15525;45.568;5.448;2023-04-07T13:02:35;3.33;;;1.65;;
28266;SDS011;15525;45.568;5.448;2023-04-07T13:05:01;2.47;;;1.58;;
28266;SDS011;15525;45.568;5.448;2023-04-07T13:07:27;1.90;;;1.30;;
28266;SDS011;15525;45.568;5.448;2023-04-07T13:09:53;2.85;;;1.60;;
28266;SDS011;15525;45.568;5.448;2023-04-07T13:12:18;3.10;;;1.60;;
28266;SDS011;15525;45.568;5.448;2023-04-07T13:14:44;2.15;;;1.45;;
28266;SDS011;15525;45.568;5.448;2023-04-07T13:17:10;2.70;;;1.80;;
28266;SDS011;15525;45.568;5.448;2023-04-07T13:19:35;3.10;;;1.95;;
28266;SDS011;15525;45.568;5.448;2023-04-07T13:22:01;2.50;;;1.50;;
28266;SDS011;15525;45.568;5.448;2023-04-07T13:24:27;3.72;;;1.50;;
28266;SDS011;15525;45.568;5.448;2023-04-07T13:26:52;2.58;;;1.50;;
28266;SDS011;15525;45.568;5.448;2023-04-07T13:29:18;3.55;;;1.70;;
28266;SDS011;15525;45.568;5.448;2023-04-07T13:31:46;2.10;;;1.50;;
28266;SDS011;15525;45.568;5.448;2023-04-07T13:34:12;2.88;;;1.73;;
28266;SDS011;15525;45.568;5.448;2023-04-07T13:36:38;2.65;;;1.63;;
28266;SDS011;15525;45.568;5.448;2023-04-07T13:39:04;3.38;;;1.60;;
28266;SDS011;15525;45.568;5.448;2023-04-07T13:41:30;2.03;;;1.42;;
28266;SDS011;15525;45.568;5.448;2023-04-07T13:43:55;3.38;;;1.50;;
28266;SDS011;15525;45.568;5.448;2023-04-07T13:46:22;2.75;;;1.65;;
28266;SDS011;15525;45.568;5.448;2023-04-07T13:48:48;2.42;;;1.60;;
28266;SDS011;15525;45.568;5.448;2023-04-07T13:51:14;3.35;;;1.70;;
28266;SDS011;15525;45.568;5.448;2023-04-07T13:53:40;4.05;;;1.63;;
28266;SDS011;15525;45.568;5.448;2023-04-07T13:56:06;2.75;;;1.40;;
28266;SDS011;15525;45.568;5.448;2023-04-07T13:58:32;3.72;;;1.45;;
28266;SDS011;15525;45.568;5.448;2023-04-07T14:00:59;1.95;;;1.50;;
28266;SDS011;15525;45.568;5.448;2023-04-07T14:03:27;3.88;;;1.60;;
28266;SDS011;15525;45.568;5.448;2023-04-07T14:05:53;2.35;;;1.30;;
28266;SDS011;15525;45.568;5.448;2023-04-07T14:08:19;4.35;;;1.40;;
28266;SDS011;15525;45.568;5.448;2023-04-07T14:10:47;2.20;;;1.30;;
28266;SDS011;15525;45.568;5.448;2023-04-07T14:13:13;2.35;;;1.27;;
28266;SDS011;15525;45.568;5.448;2023-04-07T14:15:39;1.67;;;1.20;;
28266;SDS011;15525;45.568;5.448;2023-04-07T14:18:04;2.08;;;1.20;;
28266;SDS011;15525;45.568;5.448;2023-04-07T14:20:30;3.08;;;1.30;;
28266;SDS011;15525;45.568;5.448;2023-04-07T14:22:55;2.78;;;1.20;;
28266;SDS011;15525;45.568;5.448;2023-04-07T14:25:21;1.60;;;1.17;;
28266;SDS011;15525;45.568;5.448;2023-04-07T14:27:46;1.27;;;1.08;;
28266;SDS011;15525;45.568;5.448;2023-04-07T14:30:11;2.45;;;1.33;;
28266;SDS011;15525;45.568;5.448;2023-04-07T14:32:37;4.47;;;1.48;;
28266;SDS011;15525;45.568;5.448;2023-04-07T14:35:02;3.50;;;1.27;;
28266;SDS011;15525;45.568;5.448;2023-04-07T14:37:28;2.90;;;1.20;;
28266;SDS011;15525;45.568;5.448;2023-04-07T14:39:53;4.35;;;1.17;;
28266;SDS011;15525;45.568;5.448;2023-04-07T14:42:19;4.03;;;1.48;;
28266;SDS011;15525;45.568;5.448;2023-04-07T14:44:45;3.45;;;1.63;;
28266;SDS011;15525;45.568;5.448;2023-04-07T14:47:10;2.33;;;1.40;;
28266;SDS011;15525;45.568;5.448;2023-04-07T14:49:36;2.30;;;1.20;;
28266;SDS011;15525;45.568;5.448;2023-04-07T14:52:02;2.13;;;1.30;;
28266;SDS011;15525;45.568;5.448;2023-04-07T14:54:27;3.05;;;1.42;;
28266;SDS011;15525;45.568;5.448;2023-04-07T14:56:53;1.45;;;1.10;;
28266;SDS011;15525;45.568;5.448;2023-04-07T14:59:19;1.92;;;1.33;;
28266;SDS011;15525;45.568;5.448;2023-04-07T15:01:44;2.30;;;1.45;;
28266;SDS011;15525;45.568;5.448;2023-04-07T15:04:10;2.30;;;1.30;;
28266;SDS011;15525;45.568;5.448;2023-04-07T15:06:35;1.98;;;1.38;;
28266;SDS011;15525;45.568;5.448;2023-04-07T15:09:01;4.07;;;1.30;;
28266;SDS011;15525;45.568;5.448;2023-04-07T15:11:26;1.45;;;1.10;;
28266;SDS011;15525;45.568;5.448;2023-04-07T15:13:51;2.05;;;1.30;;